sensor_id;sensor_type;location;lat;lon;timestamp;P1;durP1;ratioP1;P2;durP2;ratioP2
20880;SDS011;10600;53.096;8.802;2023-07-13T00:00:49;13.70;;;8.35;;
20880;SDS011;10600;53.096;8.802;2023-07-13T00:01:50;9.95;;;6.63;;
20880;SDS011;10600;53.096;8.802;2023-07-13T00:02:51;12.88;;;7.47;;
20880;SDS011;10600;53.096;8.802;2023-07-13T00:03:56;8.60;;;7.20;;
20880;SDS011;10600;53.096;8.802;2023-07-13T00:04:57;16.25;;;8.30;;
20880;SDS011;10600;53.096;8.802;2023-07-13T00:05:59;14.55;;;7.72;;
20880;SDS011;10600;53.096;8.802;2023-07-13T00:07:00;11.48;;;7.80;;
20880;SDS011;10600;53.096;8.802;2023-07-13T00:08:01;12.93;;;8.30;;
20880;SDS011;10600;53.096;8.802;2023-07-13T00:09:02;15.40;;;8.57;;
20880;SDS011;10600;53.096;8.802;2023-07-13T00:10:03;13.13;;;8.02;;
20880;SDS011;10600;53.096;8.802;2023-07-13T00:11:04;12.25;;;8.10;;
20880;SDS011;10600;53.096;8.802;2023-07-13T00:12:25;13.90;;;8.82;;
20880;SDS011;10600;53.096;8.802;2023-07-13T00:13:26;14.15;;;8.70;;
20880;SDS011;10600;53.096;8.802;2023-07-13T00:14:27;10.43;;;8.30;;
20880;SDS011;10600;53.096;8.802;2023-07-13T00:15:29;13.65;;;8.48;;
20880;SDS011;10600;53.096;8.802;2023-07-13T00:16:32;14.10;;;7.82;;
20880;SDS011;10600;53.096;8.802;2023-07-13T00:17:33;12.55;;;8.40;;
20880;SDS011;10600;53.096;8.802;2023-07-13T00:18:34;18.85;;;8.98;;
20880;SDS011;10600;53.096;8.802;2023-07-13T00:19:35;16.17;;;8.75;;
20880;SDS011;10600;53.096;8.802;2023-07-13T00:20:36;11.82;;;8.70;;
20880;SDS011;10600;53.096;8.802;2023-07-13T00:21:38;13.35;;;8.82;;
20880;SDS011;10600;53.096;8.802;2023-07-13T00:22:39;12.50;;;8.52;;
20880;SDS011;10600;53.096;8.802;2023-07-13T00:23:41;12.15;;;8.15;;
20880;SDS011;10600;53.096;8.802;2023-07-13T00:24:43;14.32;;;8.82;;
20880;SDS011;10600;53.096;8.802;2023-07-13T00:25:44;9.40;;;7.57;;
20880;SDS011;10600;53.096;8.802;2023-07-13T00:26:45;14.13;;;7.65;;
20880;SDS011;10600;53.096;8.802;2023-07-13T00:27:47;10.45;;;8.00;;
20880;SDS011;10600;53.096;8.802;2023-07-13T00:28:51;13.65;;;7.90;;
20880;SDS011;10600;53.096;8.802;2023-07-13T00:29:52;15.80;;;7.97;;
20880;SDS011;10600;53.096;8.802;2023-07-13T00:30:53;9.52;;;7.18;;
20880;SDS011;10600;53.096;8.802;2023-07-13T00:31:54;13.63;;;7.65;;
20880;SDS011;10600;53.096;8.802;2023-07-13T00:32:55;10.77;;;8.13;;
20880;SDS011;10600;53.096;8.802;2023-07-13T00:33:56;12.95;;;7.35;;
20880;SDS011;10600;53.096;8.802;2023-07-13T00:34:57;13.10;;;7.65;;
20880;SDS011;10600;53.096;8.802;2023-07-13T00:36:00;14.65;;;7.25;;
20880;SDS011;10600;53.096;8.802;2023-07-13T00:37:01;11.52;;;8.18;;
20880;SDS011;10600;53.096;8.802;2023-07-13T00:38:02;12.00;;;8.23;;
20880;SDS011;10600;53.096;8.802;2023-07-13T00:39:03;11.80;;;7.60;;
20880;SDS011;10600;53.096;8.802;2023-07-13T00:40:06;12.07;;;7.57;;
20880;SDS011;10600;53.096;8.802;2023-07-13T00:41:07;15.30;;;8.25;;
20880;SDS011;10600;53.096;8.802;2023-07-13T00:42:09;15.25;;;8.60;;
20880;SDS011;10600;53.096;8.802;2023-07-13T00:43:13;11.82;;;8.63;;
20880;SDS011;10600;53.096;8.802;2023-07-13T00:44:14;10.93;;;7.93;;
20880;SDS011;10600;53.096;8.802;2023-07-13T00:46:27;11.65;;;8.38;;
20880;SDS011;10600;53.096;8.802;2023-07-13T00:47:28;12.98;;;8.82;;
20880;SDS011;10600;53.096;8.802;2023-07-13T00:48:31;12.52;;;8.55;;
20880;SDS011;10600;53.096;8.802;2023-07-13T00:49:33;13.13;;;9.00;;
20880;SDS011;10600;53.096;8.802;2023-07-13T00:50:36;13.30;;;9.02;;
20880;SDS011;10600;53.096;8.802;2023-07-13T00:51:40;12.93;;;8.88;;
20880;SDS011;10600;53.096;8.802;2023-07-13T00:52:43;15.55;;;9.23;;
20880;SDS011;10600;53.096;8.802;2023-07-13T00:53:45;11.73;;;8.18;;
20880;SDS011;10600;53.096;8.802;2023-07-13T00:54:46;13.52;;;8.32;;
20880;SDS011;10600;53.096;8.802;2023-07-13T00:55:48;15.57;;;9.85;;
20880;SDS011;10600;53.096;8.802;2023-07-13T00:56:51;12.60;;;8.40;;
20880;SDS011;10600;53.096;8.802;2023-07-13T00:57:53;12.38;;;9.20;;
20880;SDS011;10600;53.096;8.802;2023-07-13T00:58:54;11.45;;;8.45;;
20880;SDS011;10600;53.096;8.802;2023-07-13T00:59:58;14.75;;;9.23;;
20880;SDS011;10600;53.096;8.802;2023-07-13T01:00:59;14.73;;;9.45;;
20880;SDS011;10600;53.096;8.802;2023-07-13T01:02:01;14.02;;;9.30;;
20880;SDS011;10600;53.096;8.802;2023-07-13T01:03:02;16.73;;;9.43;;
20880;SDS011;10600;53.096;8.802;2023-07-13T01:04:04;14.00;;;9.32;;
20880;SDS011;10600;53.096;8.802;2023-07-13T01:05:15;14.85;;;9.98;;
20880;SDS011;10600;53.096;8.802;2023-07-13T01:06:16;14.48;;;9.10;;
20880;SDS011;10600;53.096;8.802;2023-07-13T01:07:18;15.10;;;10.02;;
20880;SDS011;10600;53.096;8.802;2023-07-13T01:08:20;17.02;;;10.10;;
20880;SDS011;10600;53.096;8.802;2023-07-13T01:09:21;15.93;;;10.10;;
20880;SDS011;10600;53.096;8.802;2023-07-13T01:10:22;17.75;;;10.10;;
20880;SDS011;10600;53.096;8.802;2023-07-13T01:11:23;15.45;;;10.40;;
20880;SDS011;10600;53.096;8.802;2023-07-13T01:12:24;12.52;;;9.68;;
20880;SDS011;10600;53.096;8.802;2023-07-13T01:13:25;13.20;;;9.77;;
20880;SDS011;10600;53.096;8.802;2023-07-13T01:14:26;15.55;;;10.50;;
20880;SDS011;10600;53.096;8.802;2023-07-13T01:15:44;14.55;;;10.75;;
20880;SDS011;10600;53.096;8.802;2023-07-13T01:16:45;17.52;;;10.68;;
20880;SDS011;10600;53.096;8.802;2023-07-13T01:17:47;15.75;;;10.48;;
20880;SDS011;10600;53.096;8.802;2023-07-13T01:18:48;17.45;;;11.48;;
20880;SDS011;10600;53.096;8.802;2023-07-13T01:19:49;15.25;;;9.85;;
20880;SDS011;10600;53.096;8.802;2023-07-13T01:20:57;15.52;;;10.55;;
20880;SDS011;10600;53.096;8.802;2023-07-13T01:21:58;13.60;;;9.75;;
20880;SDS011;10600;53.096;8.802;2023-07-13T01:22:59;18.85;;;10.20;;
20880;SDS011;10600;53.096;8.802;2023-07-13T01:24:00;11.98;;;9.85;;
20880;SDS011;10600;53.096;8.802;2023-07-13T01:25:02;15.85;;;9.82;;
20880;SDS011;10600;53.096;8.802;2023-07-13T01:26:03;16.33;;;9.80;;
20880;SDS011;10600;53.096;8.802;2023-07-13T01:27:04;16.77;;;9.20;;
20880;SDS011;10600;53.096;8.802;2023-07-13T01:28:08;14.88;;;9.90;;
20880;SDS011;10600;53.096;8.802;2023-07-13T01:29:09;17.67;;;10.15;;
20880;SDS011;10600;53.096;8.802;2023-07-13T01:30:11;13.77;;;9.05;;
20880;SDS011;10600;53.096;8.802;2023-07-13T01:31:12;19.05;;;9.65;;
20880;SDS011;10600;53.096;8.802;2023-07-13T01:32:14;14.15;;;9.60;;
20880;SDS011;10600;53.096;8.802;2023-07-13T01:33:16;21.10;;;9.65;;
20880;SDS011;10600;53.096;8.802;2023-07-13T01:34:18;15.30;;;9.32;;
20880;SDS011;10600;53.096;8.802;2023-07-13T01:35:19;11.20;;;9.02;;
20880;SDS011;10600;53.096;8.802;2023-07-13T01:36:20;17.23;;;9.95;;
20880;SDS011;10600;53.096;8.802;2023-07-13T01:37:21;18.65;;;9.13;;
20880;SDS011;10600;53.096;8.802;2023-07-13T01:38:22;13.82;;;8.25;;
20880;SDS011;10600;53.096;8.802;2023-07-13T01:39:23;11.77;;;8.65;;
20880;SDS011;10600;53.096;8.802;2023-07-13T01:40:25;14.57;;;9.55;;
20880;SDS011;10600;53.096;8.802;2023-07-13T01:41:26;15.35;;;8.57;;
20880;SDS011;10600;53.096;8.802;2023-07-13T01:42:27;16.75;;;9.40;;
20880;SDS011;10600;53.096;8.802;2023-07-13T01:43:29;17.15;;;9.63;;
20880;SDS011;10600;53.096;8.802;2023-07-13T01:44:30;10.65;;;8.95;;
20880;SDS011;10600;53.096;8.802;2023-07-13T01:45:31;15.40;;;9.27;;
20880;SDS011;10600;53.096;8.802;2023-07-13T01:46:32;14.30;;;8.52;;
20880;SDS011;10600;53.096;8.802;2023-07-13T01:47:33;16.95;;;9.82;;
20880;SDS011;10600;53.096;8.802;2023-07-13T01:48:34;11.50;;;8.55;;
20880;SDS011;10600;53.096;8.802;2023-07-13T01:49:35;13.95;;;8.63;;
20880;SDS011;10600;53.096;8.802;2023-07-13T01:50:38;16.10;;;9.45;;
20880;SDS011;10600;53.096;8.802;2023-07-13T01:51:39;20.95;;;9.50;;
20880;SDS011;10600;53.096;8.802;2023-07-13T01:52:40;16.67;;;9.73;;
20880;SDS011;10600;53.096;8.802;2023-07-13T01:53:41;21.10;;;10.82;;
20880;SDS011;10600;53.096;8.802;2023-07-13T01:54:42;16.20;;;9.82;;
20880;SDS011;10600;53.096;8.802;2023-07-13T01:55:43;14.35;;;9.73;;
20880;SDS011;10600;53.096;8.802;2023-07-13T01:56:44;12.55;;;9.32;;
20880;SDS011;10600;53.096;8.802;2023-07-13T01:57:45;17.67;;;10.93;;
20880;SDS011;10600;53.096;8.802;2023-07-13T01:58:46;14.80;;;9.95;;
20880;SDS011;10600;53.096;8.802;2023-07-13T01:59:47;15.38;;;10.85;;
20880;SDS011;10600;53.096;8.802;2023-07-13T02:00:49;19.30;;;10.60;;
20880;SDS011;10600;53.096;8.802;2023-07-13T02:01:50;18.45;;;10.65;;
20880;SDS011;10600;53.096;8.802;2023-07-13T02:02:51;16.05;;;10.95;;
20880;SDS011;10600;53.096;8.802;2023-07-13T02:03:52;16.67;;;10.13;;
20880;SDS011;10600;53.096;8.802;2023-07-13T02:04:53;17.30;;;10.48;;
20880;SDS011;10600;53.096;8.802;2023-07-13T02:05:54;16.83;;;10.98;;
20880;SDS011;10600;53.096;8.802;2023-07-13T02:06:55;15.07;;;9.77;;
20880;SDS011;10600;53.096;8.802;2023-07-13T02:07:56;15.77;;;9.93;;
20880;SDS011;10600;53.096;8.802;2023-07-13T02:08:57;16.73;;;9.85;;
20880;SDS011;10600;53.096;8.802;2023-07-13T02:09:58;13.27;;;9.40;;
20880;SDS011;10600;53.096;8.802;2023-07-13T02:10:59;15.25;;;10.93;;
20880;SDS011;10600;53.096;8.802;2023-07-13T02:12:01;18.77;;;9.02;;
20880;SDS011;10600;53.096;8.802;2023-07-13T02:13:02;14.00;;;9.45;;
20880;SDS011;10600;53.096;8.802;2023-07-13T02:14:03;16.20;;;10.00;;
20880;SDS011;10600;53.096;8.802;2023-07-13T02:15:04;18.35;;;10.48;;
20880;SDS011;10600;53.096;8.802;2023-07-13T02:16:06;18.20;;;9.65;;
20880;SDS011;10600;53.096;8.802;2023-07-13T02:17:07;17.40;;;10.27;;
20880;SDS011;10600;53.096;8.802;2023-07-13T02:18:08;15.68;;;9.52;;
20880;SDS011;10600;53.096;8.802;2023-07-13T02:19:09;17.02;;;9.55;;
20880;SDS011;10600;53.096;8.802;2023-07-13T02:20:10;15.77;;;9.82;;
20880;SDS011;10600;53.096;8.802;2023-07-13T02:21:11;12.85;;;9.43;;
20880;SDS011;10600;53.096;8.802;2023-07-13T02:22:12;14.88;;;9.30;;
20880;SDS011;10600;53.096;8.802;2023-07-13T02:23:13;16.90;;;9.75;;
20880;SDS011;10600;53.096;8.802;2023-07-13T02:24:14;16.77;;;9.68;;
20880;SDS011;10600;53.096;8.802;2023-07-13T02:25:17;16.52;;;9.88;;
20880;SDS011;10600;53.096;8.802;2023-07-13T02:26:18;18.45;;;9.95;;
20880;SDS011;10600;53.096;8.802;2023-07-13T02:27:20;16.65;;;10.38;;
20880;SDS011;10600;53.096;8.802;2023-07-13T02:28:21;14.23;;;10.07;;
20880;SDS011;10600;53.096;8.802;2023-07-13T02:29:22;19.23;;;10.50;;
20880;SDS011;10600;53.096;8.802;2023-07-13T02:30:23;12.23;;;8.73;;
20880;SDS011;10600;53.096;8.802;2023-07-13T02:31:24;14.25;;;10.10;;
20880;SDS011;10600;53.096;8.802;2023-07-13T02:32:25;15.48;;;9.73;;
20880;SDS011;10600;53.096;8.802;2023-07-13T02:33:26;18.70;;;9.93;;
20880;SDS011;10600;53.096;8.802;2023-07-13T02:34:27;15.25;;;9.57;;
20880;SDS011;10600;53.096;8.802;2023-07-13T02:35:28;18.58;;;9.85;;
20880;SDS011;10600;53.096;8.802;2023-07-13T02:36:30;12.95;;;9.23;;
20880;SDS011;10600;53.096;8.802;2023-07-13T02:37:31;17.33;;;9.82;;
20880;SDS011;10600;53.096;8.802;2023-07-13T02:38:32;15.05;;;9.85;;
20880;SDS011;10600;53.096;8.802;2023-07-13T02:39:34;11.88;;;8.73;;
20880;SDS011;10600;53.096;8.802;2023-07-13T02:40:36;19.65;;;10.13;;
20880;SDS011;10600;53.096;8.802;2023-07-13T02:41:38;12.98;;;9.35;;
20880;SDS011;10600;53.096;8.802;2023-07-13T02:42:39;16.33;;;9.43;;
20880;SDS011;10600;53.096;8.802;2023-07-13T02:43:40;14.93;;;8.98;;
20880;SDS011;10600;53.096;8.802;2023-07-13T02:44:41;18.15;;;9.48;;
20880;SDS011;10600;53.096;8.802;2023-07-13T02:45:45;13.98;;;9.15;;
20880;SDS011;10600;53.096;8.802;2023-07-13T02:46:47;14.10;;;8.75;;
20880;SDS011;10600;53.096;8.802;2023-07-13T02:47:48;11.20;;;9.00;;
20880;SDS011;10600;53.096;8.802;2023-07-13T02:48:49;18.50;;;9.57;;
20880;SDS011;10600;53.096;8.802;2023-07-13T02:49:50;16.88;;;10.18;;
20880;SDS011;10600;53.096;8.802;2023-07-13T02:50:51;19.88;;;9.38;;
20880;SDS011;10600;53.096;8.802;2023-07-13T02:51:52;16.70;;;9.20;;
20880;SDS011;10600;53.096;8.802;2023-07-13T02:52:53;16.42;;;9.45;;
20880;SDS011;10600;53.096;8.802;2023-07-13T02:53:53;16.92;;;9.38;;
20880;SDS011;10600;53.096;8.802;2023-07-13T02:54:55;18.52;;;8.55;;
20880;SDS011;10600;53.096;8.802;2023-07-13T02:55:55;19.80;;;8.65;;
20880;SDS011;10600;53.096;8.802;2023-07-13T02:56:56;17.13;;;8.90;;
20880;SDS011;10600;53.096;8.802;2023-07-13T02:57:57;17.65;;;9.18;;
20880;SDS011;10600;53.096;8.802;2023-07-13T02:58:58;17.65;;;9.52;;
20880;SDS011;10600;53.096;8.802;2023-07-13T03:00:00;17.25;;;8.48;;
20880;SDS011;10600;53.096;8.802;2023-07-13T03:01:08;17.25;;;8.68;;
20880;SDS011;10600;53.096;8.802;2023-07-13T03:02:09;11.50;;;7.72;;
20880;SDS011;10600;53.096;8.802;2023-07-13T03:03:10;14.77;;;7.45;;
20880;SDS011;10600;53.096;8.802;2023-07-13T03:04:12;14.27;;;7.18;;
20880;SDS011;10600;53.096;8.802;2023-07-13T03:05:13;18.73;;;8.20;;
20880;SDS011;10600;53.096;8.802;2023-07-13T03:06:15;14.75;;;7.93;;
20880;SDS011;10600;53.096;8.802;2023-07-13T03:07:16;19.20;;;7.85;;
20880;SDS011;10600;53.096;8.802;2023-07-13T03:08:17;22.08;;;7.57;;
20880;SDS011;10600;53.096;8.802;2023-07-13T03:09:18;18.75;;;7.75;;
20880;SDS011;10600;53.096;8.802;2023-07-13T03:10:19;13.70;;;7.32;;
20880;SDS011;10600;53.096;8.802;2023-07-13T03:11:20;14.13;;;7.55;;
20880;SDS011;10600;53.096;8.802;2023-07-13T03:12:22;12.15;;;6.57;;
20880;SDS011;10600;53.096;8.802;2023-07-13T03:13:23;18.25;;;7.13;;
20880;SDS011;10600;53.096;8.802;2023-07-13T03:14:24;13.65;;;5.97;;
20880;SDS011;10600;53.096;8.802;2023-07-13T03:15:25;20.33;;;6.82;;
20880;SDS011;10600;53.096;8.802;2023-07-13T03:16:27;13.98;;;6.55;;
20880;SDS011;10600;53.096;8.802;2023-07-13T03:17:28;11.65;;;5.88;;
20880;SDS011;10600;53.096;8.802;2023-07-13T03:18:29;12.32;;;6.10;;
20880;SDS011;10600;53.096;8.802;2023-07-13T03:19:30;17.25;;;7.10;;
20880;SDS011;10600;53.096;8.802;2023-07-13T03:20:32;14.60;;;6.22;;
20880;SDS011;10600;53.096;8.802;2023-07-13T03:21:33;16.70;;;6.95;;
20880;SDS011;10600;53.096;8.802;2023-07-13T03:22:34;15.63;;;6.75;;
20880;SDS011;10600;53.096;8.802;2023-07-13T03:23:35;14.57;;;6.10;;
20880;SDS011;10600;53.096;8.802;2023-07-13T03:24:36;13.48;;;6.13;;
20880;SDS011;10600;53.096;8.802;2023-07-13T03:25:37;12.93;;;6.43;;
20880;SDS011;10600;53.096;8.802;2023-07-13T03:26:38;13.32;;;5.78;;
20880;SDS011;10600;53.096;8.802;2023-07-13T03:27:39;16.17;;;6.25;;
20880;SDS011;10600;53.096;8.802;2023-07-13T03:28:41;11.65;;;6.22;;
20880;SDS011;10600;53.096;8.802;2023-07-13T03:29:42;14.05;;;5.72;;
20880;SDS011;10600;53.096;8.802;2023-07-13T03:30:43;10.93;;;5.80;;
20880;SDS011;10600;53.096;8.802;2023-07-13T03:31:44;13.75;;;5.43;;
20880;SDS011;10600;53.096;8.802;2023-07-13T03:32:45;18.00;;;6.47;;
20880;SDS011;10600;53.096;8.802;2023-07-13T03:33:46;18.02;;;6.07;;
20880;SDS011;10600;53.096;8.802;2023-07-13T03:34:48;16.13;;;5.53;;
20880;SDS011;10600;53.096;8.802;2023-07-13T03:35:49;18.48;;;5.63;;
20880;SDS011;10600;53.096;8.802;2023-07-13T03:36:50;13.85;;;5.82;;
20880;SDS011;10600;53.096;8.802;2023-07-13T03:37:51;14.88;;;6.85;;
20880;SDS011;10600;53.096;8.802;2023-07-13T03:38:53;11.85;;;5.55;;
20880;SDS011;10600;53.096;8.802;2023-07-13T03:39:54;13.32;;;5.85;;
20880;SDS011;10600;53.096;8.802;2023-07-13T03:40:55;13.10;;;5.53;;
20880;SDS011;10600;53.096;8.802;2023-07-13T03:41:56;17.20;;;5.35;;
20880;SDS011;10600;53.096;8.802;2023-07-13T03:42:57;16.70;;;6.85;;
20880;SDS011;10600;53.096;8.802;2023-07-13T03:43:58;14.48;;;5.20;;
20880;SDS011;10600;53.096;8.802;2023-07-13T03:44:59;12.07;;;5.18;;
20880;SDS011;10600;53.096;8.802;2023-07-13T03:46:00;12.02;;;5.25;;
20880;SDS011;10600;53.096;8.802;2023-07-13T03:47:01;13.07;;;5.45;;
20880;SDS011;10600;53.096;8.802;2023-07-13T03:48:02;16.52;;;5.35;;
20880;SDS011;10600;53.096;8.802;2023-07-13T03:49:04;13.98;;;5.40;;
20880;SDS011;10600;53.096;8.802;2023-07-13T03:50:05;14.93;;;4.80;;
20880;SDS011;10600;53.096;8.802;2023-07-13T03:51:06;17.35;;;5.47;;
20880;SDS011;10600;53.096;8.802;2023-07-13T03:52:08;14.18;;;5.60;;
20880;SDS011;10600;53.096;8.802;2023-07-13T03:53:09;12.63;;;4.88;;
20880;SDS011;10600;53.096;8.802;2023-07-13T03:54:10;16.75;;;5.20;;
20880;SDS011;10600;53.096;8.802;2023-07-13T03:55:11;15.38;;;5.65;;
20880;SDS011;10600;53.096;8.802;2023-07-13T03:56:12;17.58;;;5.95;;
20880;SDS011;10600;53.096;8.802;2023-07-13T03:57:15;16.48;;;5.20;;
20880;SDS011;10600;53.096;8.802;2023-07-13T03:58:23;10.77;;;4.82;;
20880;SDS011;10600;53.096;8.802;2023-07-13T03:59:24;13.75;;;5.00;;
20880;SDS011;10600;53.096;8.802;2023-07-13T04:00:25;13.60;;;4.60;;
20880;SDS011;10600;53.096;8.802;2023-07-13T04:01:26;10.90;;;4.93;;
20880;SDS011;10600;53.096;8.802;2023-07-13T04:02:27;14.85;;;4.70;;
20880;SDS011;10600;53.096;8.802;2023-07-13T04:03:29;8.65;;;4.72;;
20880;SDS011;10600;53.096;8.802;2023-07-13T04:04:32;12.80;;;5.05;;
20880;SDS011;10600;53.096;8.802;2023-07-13T04:05:33;11.07;;;5.00;;
20880;SDS011;10600;53.096;8.802;2023-07-13T04:06:36;15.77;;;4.70;;
20880;SDS011;10600;53.096;8.802;2023-07-13T04:07:37;7.80;;;3.53;;
20880;SDS011;10600;53.096;8.802;2023-07-13T04:08:38;15.48;;;4.85;;
20880;SDS011;10600;53.096;8.802;2023-07-13T04:09:39;23.00;;;5.03;;
20880;SDS011;10600;53.096;8.802;2023-07-13T04:10:40;14.07;;;5.15;;
20880;SDS011;10600;53.096;8.802;2023-07-13T04:11:42;14.93;;;4.38;;
20880;SDS011;10600;53.096;8.802;2023-07-13T04:12:43;15.32;;;4.55;;
20880;SDS011;10600;53.096;8.802;2023-07-13T04:13:44;14.30;;;3.97;;
20880;SDS011;10600;53.096;8.802;2023-07-13T04:14:45;13.07;;;4.57;;
20880;SDS011;10600;53.096;8.802;2023-07-13T04:15:46;13.98;;;4.75;;
20880;SDS011;10600;53.096;8.802;2023-07-13T04:16:47;15.45;;;4.68;;
20880;SDS011;10600;53.096;8.802;2023-07-13T04:17:48;20.05;;;5.25;;
20880;SDS011;10600;53.096;8.802;2023-07-13T04:18:52;17.08;;;5.65;;
20880;SDS011;10600;53.096;8.802;2023-07-13T04:19:55;14.00;;;4.15;;
20880;SDS011;10600;53.096;8.802;2023-07-13T04:20:56;15.07;;;4.32;;
20880;SDS011;10600;53.096;8.802;2023-07-13T04:21:57;15.15;;;4.32;;
20880;SDS011;10600;53.096;8.802;2023-07-13T04:22:58;12.57;;;3.30;;
20880;SDS011;10600;53.096;8.802;2023-07-13T04:23:59;19.33;;;4.75;;
20880;SDS011;10600;53.096;8.802;2023-07-13T04:25:00;17.98;;;4.95;;
20880;SDS011;10600;53.096;8.802;2023-07-13T04:26:01;13.55;;;4.18;;
20880;SDS011;10600;53.096;8.802;2023-07-13T04:27:02;11.27;;;3.92;;
20880;SDS011;10600;53.096;8.802;2023-07-13T04:28:03;13.55;;;3.72;;
20880;SDS011;10600;53.096;8.802;2023-07-13T04:29:05;12.63;;;4.07;;
20880;SDS011;10600;53.096;8.802;2023-07-13T04:30:06;12.95;;;4.25;;
20880;SDS011;10600;53.096;8.802;2023-07-13T04:31:07;15.43;;;3.83;;
20880;SDS011;10600;53.096;8.802;2023-07-13T04:32:08;12.00;;;4.15;;
20880;SDS011;10600;53.096;8.802;2023-07-13T04:33:09;16.42;;;4.15;;
20880;SDS011;10600;53.096;8.802;2023-07-13T04:34:11;11.20;;;4.78;;
20880;SDS011;10600;53.096;8.802;2023-07-13T04:35:12;10.07;;;3.92;;
20880;SDS011;10600;53.096;8.802;2023-07-13T04:36:14;13.15;;;4.22;;
20880;SDS011;10600;53.096;8.802;2023-07-13T04:37:16;12.48;;;4.07;;
20880;SDS011;10600;53.096;8.802;2023-07-13T04:38:17;13.43;;;3.58;;
20880;SDS011;10600;53.096;8.802;2023-07-13T04:39:18;11.18;;;3.50;;
20880;SDS011;10600;53.096;8.802;2023-07-13T04:40:19;16.77;;;4.55;;
20880;SDS011;10600;53.096;8.802;2023-07-13T04:41:20;12.82;;;3.97;;
20880;SDS011;10600;53.096;8.802;2023-07-13T04:42:22;15.85;;;4.15;;
20880;SDS011;10600;53.096;8.802;2023-07-13T04:43:23;11.25;;;3.58;;
20880;SDS011;10600;53.096;8.802;2023-07-13T04:44:24;15.10;;;4.13;;
20880;SDS011;10600;53.096;8.802;2023-07-13T04:45:25;12.18;;;3.50;;
20880;SDS011;10600;53.096;8.802;2023-07-13T04:46:26;12.05;;;3.78;;
20880;SDS011;10600;53.096;8.802;2023-07-13T04:47:30;16.10;;;4.20;;
20880;SDS011;10600;53.096;8.802;2023-07-13T04:48:31;15.45;;;3.97;;
20880;SDS011;10600;53.096;8.802;2023-07-13T04:49:32;17.73;;;4.35;;
20880;SDS011;10600;53.096;8.802;2023-07-13T04:50:33;14.55;;;4.15;;
20880;SDS011;10600;53.096;8.802;2023-07-13T04:51:36;16.70;;;4.22;;
20880;SDS011;10600;53.096;8.802;2023-07-13T04:52:37;17.23;;;3.92;;
20880;SDS011;10600;53.096;8.802;2023-07-13T04:53:38;12.95;;;3.70;;
20880;SDS011;10600;53.096;8.802;2023-07-13T04:54:39;11.60;;;3.55;;
20880;SDS011;10600;53.096;8.802;2023-07-13T04:55:41;12.70;;;4.30;;
20880;SDS011;10600;53.096;8.802;2023-07-13T04:56:42;9.52;;;3.50;;
20880;SDS011;10600;53.096;8.802;2023-07-13T04:57:43;15.10;;;4.40;;
20880;SDS011;10600;53.096;8.802;2023-07-13T04:58:44;16.42;;;4.72;;
20880;SDS011;10600;53.096;8.802;2023-07-13T04:59:45;9.43;;;3.35;;
20880;SDS011;10600;53.096;8.802;2023-07-13T05:00:46;12.18;;;4.18;;
20880;SDS011;10600;53.096;8.802;2023-07-13T05:01:47;10.80;;;3.45;;
20880;SDS011;10600;53.096;8.802;2023-07-13T05:02:48;15.38;;;4.15;;
20880;SDS011;10600;53.096;8.802;2023-07-13T05:03:49;12.95;;;3.67;;
20880;SDS011;10600;53.096;8.802;2023-07-13T05:04:50;9.10;;;3.72;;
20880;SDS011;10600;53.096;8.802;2023-07-13T05:06:01;11.25;;;3.47;;
20880;SDS011;10600;53.096;8.802;2023-07-13T05:07:02;16.23;;;4.25;;
20880;SDS011;10600;53.096;8.802;2023-07-13T05:08:03;12.15;;;3.58;;
20880;SDS011;10600;53.096;8.802;2023-07-13T05:09:04;13.20;;;4.07;;
20880;SDS011;10600;53.096;8.802;2023-07-13T05:10:06;15.85;;;4.22;;
20880;SDS011;10600;53.096;8.802;2023-07-13T05:11:07;14.43;;;3.95;;
20880;SDS011;10600;53.096;8.802;2023-07-13T05:12:08;15.90;;;3.72;;
20880;SDS011;10600;53.096;8.802;2023-07-13T05:13:09;11.73;;;3.60;;
20880;SDS011;10600;53.096;8.802;2023-07-13T05:14:11;12.05;;;3.83;;
20880;SDS011;10600;53.096;8.802;2023-07-13T05:15:12;17.98;;;4.20;;
20880;SDS011;10600;53.096;8.802;2023-07-13T05:16:13;10.43;;;3.70;;
20880;SDS011;10600;53.096;8.802;2023-07-13T05:17:14;13.70;;;4.20;;
20880;SDS011;10600;53.096;8.802;2023-07-13T05:18:15;16.52;;;4.22;;
20880;SDS011;10600;53.096;8.802;2023-07-13T05:19:16;12.15;;;4.00;;
20880;SDS011;10600;53.096;8.802;2023-07-13T05:20:18;15.00;;;4.50;;
20880;SDS011;10600;53.096;8.802;2023-07-13T05:21:19;15.65;;;4.75;;
20880;SDS011;10600;53.096;8.802;2023-07-13T05:22:21;12.88;;;3.80;;
20880;SDS011;10600;53.096;8.802;2023-07-13T05:23:22;10.93;;;4.10;;
20880;SDS011;10600;53.096;8.802;2023-07-13T05:24:23;12.95;;;3.80;;
20880;SDS011;10600;53.096;8.802;2023-07-13T05:25:24;15.38;;;4.50;;
20880;SDS011;10600;53.096;8.802;2023-07-13T05:26:25;17.30;;;4.05;;
20880;SDS011;10600;53.096;8.802;2023-07-13T05:27:26;14.70;;;4.22;;
20880;SDS011;10600;53.096;8.802;2023-07-13T05:28:27;13.27;;;4.63;;
20880;SDS011;10600;53.096;8.802;2023-07-13T05:29:28;13.23;;;3.78;;
20880;SDS011;10600;53.096;8.802;2023-07-13T05:30:29;14.63;;;4.03;;
20880;SDS011;10600;53.096;8.802;2023-07-13T05:31:30;15.52;;;4.28;;
20880;SDS011;10600;53.096;8.802;2023-07-13T05:32:32;9.20;;;3.70;;
20880;SDS011;10600;53.096;8.802;2023-07-13T05:33:34;19.92;;;4.65;;
20880;SDS011;10600;53.096;8.802;2023-07-13T05:34:35;15.75;;;5.28;;
20880;SDS011;10600;53.096;8.802;2023-07-13T05:35:36;17.27;;;4.32;;
20880;SDS011;10600;53.096;8.802;2023-07-13T05:36:37;15.50;;;4.28;;
20880;SDS011;10600;53.096;8.802;2023-07-13T05:37:38;14.75;;;3.60;;
20880;SDS011;10600;53.096;8.802;2023-07-13T05:38:39;14.32;;;4.07;;
20880;SDS011;10600;53.096;8.802;2023-07-13T05:39:40;13.35;;;4.70;;
20880;SDS011;10600;53.096;8.802;2023-07-13T05:40:44;13.55;;;3.97;;
20880;SDS011;10600;53.096;8.802;2023-07-13T05:41:45;11.73;;;3.95;;
20880;SDS011;10600;53.096;8.802;2023-07-13T05:42:46;11.73;;;4.00;;
20880;SDS011;10600;53.096;8.802;2023-07-13T05:43:47;11.57;;;3.88;;
20880;SDS011;10600;53.096;8.802;2023-07-13T05:44:48;10.27;;;3.50;;
20880;SDS011;10600;53.096;8.802;2023-07-13T05:45:50;11.02;;;3.78;;
20880;SDS011;10600;53.096;8.802;2023-07-13T05:46:52;13.65;;;4.15;;
20880;SDS011;10600;53.096;8.802;2023-07-13T05:47:53;16.90;;;4.55;;
20880;SDS011;10600;53.096;8.802;2023-07-13T05:48:54;16.88;;;4.65;;
20880;SDS011;10600;53.096;8.802;2023-07-13T05:49:55;14.13;;;5.32;;
20880;SDS011;10600;53.096;8.802;2023-07-13T05:50:56;14.80;;;4.00;;
20880;SDS011;10600;53.096;8.802;2023-07-13T05:51:57;16.52;;;4.40;;
20880;SDS011;10600;53.096;8.802;2023-07-13T05:52:58;11.68;;;4.30;;
20880;SDS011;10600;53.096;8.802;2023-07-13T05:53:59;16.95;;;3.97;;
20880;SDS011;10600;53.096;8.802;2023-07-13T05:55:00;13.13;;;3.95;;
20880;SDS011;10600;53.096;8.802;2023-07-13T05:56:01;13.57;;;4.13;;
20880;SDS011;10600;53.096;8.802;2023-07-13T05:57:02;9.85;;;3.08;;
20880;SDS011;10600;53.096;8.802;2023-07-13T05:58:03;15.80;;;4.13;;
20880;SDS011;10600;53.096;8.802;2023-07-13T05:59:04;13.88;;;4.53;;
20880;SDS011;10600;53.096;8.802;2023-07-13T06:00:05;13.10;;;4.32;;
20880;SDS011;10600;53.096;8.802;2023-07-13T06:01:08;18.98;;;4.68;;
20880;SDS011;10600;53.096;8.802;2023-07-13T06:02:10;15.52;;;5.07;;
20880;SDS011;10600;53.096;8.802;2023-07-13T06:03:11;23.65;;;5.25;;
20880;SDS011;10600;53.096;8.802;2023-07-13T06:04:12;10.98;;;4.65;;
20880;SDS011;10600;53.096;8.802;2023-07-13T06:05:13;11.57;;;3.92;;
20880;SDS011;10600;53.096;8.802;2023-07-13T06:06:15;14.40;;;4.88;;